createdAt,value
2023-02-17T00:01:31.310Z,-0.94
2023-02-17T00:04:34.596Z,-1.00
2023-02-17T00:07:37.548Z,-0.97
2023-02-17T00:10:40.415Z,-0.83
2023-02-17T00:13:43.545Z,-0.82
2023-02-17T00:16:46.366Z,-0.89
2023-02-17T00:19:49.813Z,-0.88
2023-02-17T00:22:52.695Z,-0.83
2023-02-17T00:25:55.535Z,-0.65
2023-02-17T00:28:59.342Z,-0.53
2023-02-17T00:32:02.519Z,-0.43
2023-02-17T00:35:05.877Z,-0.51
2023-02-17T00:38:08.743Z,-0.50
2023-02-17T00:41:11.715Z,-0.41
2023-02-17T00:44:20.442Z,-0.45
2023-02-17T00:47:23.257Z,-0.40
2023-02-17T00:50:26.192Z,-0.38
2023-02-17T00:53:29.083Z,-0.38
2023-02-17T00:56:31.945Z,-0.46
2023-02-17T00:59:35.436Z,-0.42
2023-02-17T01:02:38.262Z,-0.34
2023-02-17T01:05:43.110Z,-0.25
2023-02-17T01:08:46.112Z,-0.28
2023-02-17T01:11:49.249Z,-0.38
2023-02-17T01:14:52.216Z,-0.45
2023-02-17T01:17:55.066Z,-0.50
2023-02-17T01:20:58.179Z,-0.57
2023-02-17T01:24:05.130Z,-0.69
2023-02-17T01:27:08.132Z,-0.74
2023-02-17T01:30:11.496Z,-0.77
2023-02-17T01:33:14.599Z,-0.71
2023-02-17T01:36:19.403Z,-0.82
2023-02-17T01:39:22.313Z,-0.89
2023-02-17T01:42:26.577Z,-1.05
2023-02-17T01:45:34.924Z,-1.05
2023-02-17T01:48:41.593Z,-1.16
2023-02-17T01:51:47.151Z,-1.04
2023-02-17T01:54:57.334Z,-0.99
2023-02-17T01:58:03.577Z,-0.98
2023-02-17T02:01:07.408Z,-0.90
2023-02-17T02:04:12.000Z,-0.90
2023-02-17T02:07:23.531Z,-0.93
2023-02-17T02:10:26.476Z,-1.06
2023-02-17T02:13:29.535Z,-1.03
2023-02-17T02:16:44.134Z,-0.94
2023-02-17T02:20:14.088Z,-1.02
2023-02-17T02:23:34.733Z,-1.04
2023-02-17T02:27:02.057Z,-1.03
2023-02-17T02:30:48.870Z,-1.05
2023-02-17T02:34:30.700Z,-1.01
2023-02-17T02:37:38.599Z,-1.01
2023-02-17T02:40:50.200Z,-0.99
2023-02-17T02:43:53.332Z,-0.99
2023-02-17T02:47:01.334Z,-1.05
2023-02-17T02:50:05.492Z,-1.10
2023-02-17T02:53:17.713Z,-1.02
2023-02-17T02:56:27.337Z,-0.99
2023-02-17T02:59:35.294Z,-0.99
2023-02-17T03:03:05.150Z,-1.02
2023-02-17T03:06:14.929Z,-1.13
2023-02-17T03:09:29.081Z,-1.15
2023-02-17T03:12:32.234Z,-1.16
2023-02-17T03:15:35.642Z,-1.17
2023-02-17T03:18:38.541Z,-1.17
2023-02-17T03:21:51.426Z,-1.13
2023-02-17T03:24:54.239Z,-0.96
2023-02-17T03:27:57.437Z,-1.17
2023-02-17T03:31:01.068Z,-1.32
2023-02-17T03:34:04.497Z,-1.38
2023-02-17T03:37:07.523Z,-1.56
2023-02-17T03:40:10.761Z,-1.63
2023-02-17T03:43:17.962Z,-1.70
2023-02-17T03:46:21.492Z,-1.70
2023-02-17T03:49:24.516Z,-1.81
2023-02-17T03:52:27.314Z,-1.87
2023-02-17T03:55:30.115Z,-1.80
2023-02-17T03:58:33.538Z,-1.81
2023-02-17T04:01:36.443Z,-1.77
2023-02-17T04:04:39.355Z,-1.74
2023-02-17T04:07:42.214Z,-1.76
2023-02-17T04:10:45.317Z,-1.72
2023-02-17T04:13:48.208Z,-1.82
2023-02-17T04:16:51.020Z,-1.80
2023-02-17T04:19:53.911Z,-1.80
2023-02-17T04:22:56.782Z,-1.84
2023-02-17T04:25:59.664Z,-1.83
2023-02-17T04:29:05.239Z,-1.86
2023-02-17T04:32:08.227Z,-1.82
2023-02-17T04:35:11.228Z,-1.88
2023-02-17T04:38:14.313Z,-1.76
2023-02-17T04:41:17.205Z,-1.73
2023-02-17T04:44:20.050Z,-1.52
2023-02-17T04:47:23.145Z,-1.32
2023-02-17T04:50:26.301Z,-1.07
2023-02-17T04:53:29.064Z,-1.07
2023-02-17T04:56:31.839Z,-1.12
2023-02-17T04:59:34.881Z,-1.04
2023-02-17T05:02:37.813Z,-0.97
2023-02-17T05:05:40.604Z,-0.78
2023-02-17T05:08:43.474Z,-0.76
2023-02-17T05:11:46.287Z,-0.76
2023-02-17T05:14:49.136Z,-0.74
2023-02-17T05:17:52.011Z,-0.67
2023-02-17T05:20:54.973Z,-0.60
2023-02-17T05:23:57.842Z,-0.54
2023-02-17T05:27:00.669Z,-0.54
2023-02-17T05:30:04.091Z,-0.55
2023-02-17T05:33:06.988Z,-0.66
2023-02-17T05:36:12.113Z,-0.66
2023-02-17T05:39:15.001Z,-0.63
2023-02-17T05:42:17.848Z,-0.55
2023-02-17T05:45:20.776Z,-0.43
2023-02-17T05:48:23.553Z,-0.28
2023-02-17T05:51:26.448Z,-0.21
2023-02-17T05:54:29.254Z,-0.19
2023-02-17T05:57:32.317Z,-0.26
2023-02-17T06:00:35.357Z,-0.16
2023-02-17T06:03:38.789Z,-0.04
2023-02-17T06:06:41.786Z,0.31
2023-02-17T06:09:47.135Z,0.73
2023-02-17T06:12:50.403Z,1.26
2023-02-17T06:15:53.339Z,1.53
2023-02-17T06:18:56.201Z,1.65
2023-02-17T06:21:59.620Z,1.77
2023-02-17T06:25:02.587Z,1.93
2023-02-17T06:28:05.743Z,2.25
2023-02-17T06:31:08.578Z,2.49
2023-02-17T06:34:12.244Z,2.56
2023-02-17T06:37:15.204Z,2.53
2023-02-17T06:40:18.289Z,2.53
2023-02-17T06:43:21.139Z,2.63
2023-02-17T06:46:23.948Z,2.69
2023-02-17T06:50:26.324Z,2.78
2023-02-17T06:57:51.596Z,3.10
2023-02-17T07:00:54.597Z,3.21
2023-02-17T07:03:58.124Z,3.38
2023-02-17T07:07:02.174Z,4.02
2023-02-17T07:10:05.727Z,5.79
2023-02-17T07:13:10.209Z,6.46
2023-02-17T07:16:14.443Z,8.38
2023-02-17T07:19:17.464Z,9.97
2023-02-17T07:22:21.739Z,11.07
2023-02-17T07:25:24.594Z,11.97
2023-02-17T07:28:27.472Z,12.98
2023-02-17T07:31:31.350Z,11.77
2023-02-17T07:34:35.051Z,10.49
2023-02-17T07:37:38.029Z,9.62
2023-02-17T07:40:41.247Z,8.53
2023-02-17T07:43:45.118Z,8.34
2023-02-17T07:46:48.607Z,8.42
2023-02-17T07:49:51.658Z,8.46
2023-02-17T07:52:54.515Z,8.24
2023-02-17T07:55:57.496Z,8.09
2023-02-17T07:59:00.376Z,8.60
2023-02-17T08:02:03.917Z,10.13
2023-02-17T08:05:07.070Z,11.83
2023-02-17T08:08:28.346Z,14.32
2023-02-17T08:11:52.300Z,15.69
2023-02-17T08:14:58.307Z,17.12
2023-02-17T08:18:02.014Z,17.68
2023-02-17T08:21:05.529Z,17.48
2023-02-17T08:24:08.735Z,18.25
2023-02-17T08:27:12.145Z,18.80
2023-02-17T08:30:16.263Z,19.72
2023-02-17T08:33:20.568Z,19.15
2023-02-17T08:36:24.982Z,19.60
2023-02-17T08:39:28.551Z,18.81
2023-02-17T08:42:32.823Z,18.33
2023-02-17T08:45:37.252Z,19.13
2023-02-17T08:48:41.162Z,18.68
2023-02-17T08:51:45.277Z,19.21
2023-02-17T08:54:50.008Z,19.89
2023-02-17T08:57:54.906Z,19.66
2023-02-17T09:00:58.375Z,20.14
2023-02-17T09:04:26.170Z,20.07
2023-02-17T09:07:33.233Z,21.34
2023-02-17T09:10:36.273Z,20.81
2023-02-17T09:13:45.075Z,21.37
2023-02-17T09:16:50.807Z,21.15
2023-02-17T09:19:54.905Z,21.15
2023-02-17T09:23:00.406Z,21.43
2023-02-17T09:26:07.198Z,20.39
2023-02-17T09:29:10.740Z,20.48
2023-02-17T09:32:13.978Z,21.04
2023-02-17T09:35:18.837Z,21.52
2023-02-17T09:38:21.880Z,22.08
2023-02-17T09:41:32.510Z,21.66
2023-02-17T09:44:44.987Z,21.42
2023-02-17T09:47:55.423Z,23.62
2023-02-17T09:51:07.053Z,23.12
2023-02-17T09:54:22.814Z,22.93
2023-02-17T09:57:29.762Z,24.33
2023-02-17T10:00:45.771Z,23.23
2023-02-17T10:03:52.003Z,23.63
2023-02-17T10:07:02.885Z,23.37
2023-02-17T10:10:14.769Z,24.59
2023-02-17T10:13:23.107Z,24.67
2023-02-17T10:16:32.472Z,25.28
2023-02-17T10:19:45.289Z,25.36
2023-02-17T10:22:54.937Z,25.55
2023-02-17T10:26:16.557Z,24.18
2023-02-17T10:29:49.629Z,24.96
2023-02-17T10:32:52.752Z,25.59
2023-02-17T10:36:34.200Z,26.25
2023-02-17T10:39:55.285Z,25.73
2023-02-17T10:43:07.673Z,26.15
2023-02-17T10:46:15.635Z,25.92
2023-02-17T10:49:31.570Z,26.17
2023-02-17T10:52:39.649Z,24.80
2023-02-17T10:55:50.794Z,25.20
2023-02-17T10:59:06.565Z,24.82
2023-02-17T11:02:31.263Z,24.38
2023-02-17T11:05:35.091Z,25.52
2023-02-17T11:08:44.897Z,26.35
2023-02-17T11:11:58.702Z,25.32
2023-02-17T11:15:05.177Z,24.69
2023-02-17T11:18:20.612Z,25.45
2023-02-17T11:21:23.512Z,25.60
2023-02-17T11:24:28.941Z,23.74
2023-02-17T11:27:31.726Z,23.89
2023-02-17T11:30:36.110Z,23.37
2023-02-17T11:33:40.668Z,23.91
2023-02-17T11:36:49.204Z,25.47
2023-02-17T11:39:54.125Z,23.31
2023-02-17T11:43:02.707Z,22.65
2023-02-17T11:46:24.101Z,22.61
2023-02-17T11:49:56.258Z,23.88
2023-02-17T11:53:08.668Z,24.49
2023-02-17T11:56:17.752Z,24.78
2023-02-17T11:59:23.828Z,23.85
2023-02-17T12:02:40.301Z,24.24
2023-02-17T12:06:24.443Z,23.96
2023-02-17T12:09:27.512Z,25.24
2023-02-17T12:12:49.235Z,24.61
2023-02-17T12:16:10.706Z,24.51
2023-02-17T12:19:25.715Z,24.53
2023-02-17T12:22:41.960Z,24.61
2023-02-17T12:26:08.451Z,26.54
2023-02-17T12:29:54.137Z,26.00
2023-02-17T12:33:33.860Z,25.84
2023-02-17T12:36:39.626Z,25.66
2023-02-17T12:39:48.522Z,25.61
2023-02-17T12:43:06.197Z,26.29
2023-02-17T12:46:15.361Z,25.09
2023-02-17T12:49:32.285Z,25.62
2023-02-17T12:52:40.718Z,25.91
2023-02-17T12:55:50.731Z,26.26
2023-02-17T12:58:56.659Z,25.00
2023-02-17T13:02:07.571Z,26.50
2023-02-17T13:05:28.309Z,24.78
2023-02-17T13:08:42.842Z,24.29
2023-02-17T13:11:46.055Z,24.24
2023-02-17T13:14:50.606Z,24.94
2023-02-17T13:18:21.481Z,25.73
2023-02-17T13:21:27.690Z,24.52
2023-02-17T13:24:34.979Z,25.26
2023-02-17T13:27:39.965Z,25.31
2023-02-17T13:30:45.652Z,25.55
2023-02-17T13:33:54.602Z,24.02
2023-02-17T13:37:03.437Z,24.22
2023-02-17T13:40:22.686Z,24.54
2023-02-17T13:43:25.882Z,24.26
2023-02-17T13:46:31.139Z,24.54
2023-02-17T13:49:35.406Z,22.83
2023-02-17T13:52:38.460Z,23.22
2023-02-17T13:55:41.962Z,22.88
2023-02-17T13:58:45.065Z,22.22
2023-02-17T14:01:48.187Z,22.38
2023-02-17T14:04:53.895Z,22.94
2023-02-17T14:08:04.626Z,22.41
2023-02-17T14:11:18.602Z,22.40
2023-02-17T14:14:25.149Z,22.05
2023-02-17T14:17:32.722Z,21.53
2023-02-17T14:20:36.909Z,21.77
2023-02-17T14:23:42.890Z,21.50
2023-02-17T14:26:49.772Z,22.42
2023-02-17T14:29:52.626Z,21.28
2023-02-17T14:33:22.951Z,19.28
2023-02-17T14:36:38.078Z,19.65
2023-02-17T14:39:44.421Z,19.61
2023-02-17T14:42:47.831Z,19.52
2023-02-17T14:45:51.092Z,19.72
2023-02-17T14:48:54.910Z,19.42
2023-02-17T14:51:58.129Z,19.56
2023-02-17T14:55:01.158Z,18.40
2023-02-17T14:58:04.120Z,17.60
2023-02-17T15:01:07.586Z,16.97
2023-02-17T15:04:10.444Z,16.46
2023-02-17T15:07:16.542Z,15.96
2023-02-17T15:10:27.279Z,15.66
2023-02-17T15:13:31.902Z,15.63
2023-02-17T15:16:35.168Z,15.71
2023-02-17T15:19:38.323Z,15.73
2023-02-17T15:22:42.276Z,15.66
2023-02-17T15:25:45.880Z,15.57
2023-02-17T15:28:48.950Z,15.54
2023-02-17T15:31:53.565Z,15.47
2023-02-17T15:34:56.982Z,15.19
2023-02-17T15:37:59.851Z,15.04
2023-02-17T15:41:04.835Z,15.09
2023-02-17T15:44:15.542Z,14.99
2023-02-17T15:47:20.776Z,14.89
2023-02-17T15:50:24.169Z,14.73
2023-02-17T15:53:32.492Z,14.67
2023-02-17T15:56:44.967Z,14.76
2023-02-17T15:59:48.364Z,14.83
2023-02-17T16:02:52.124Z,14.61
2023-02-17T16:05:55.072Z,14.40
2023-02-17T16:09:01.266Z,14.11
2023-02-17T16:12:04.534Z,13.94
2023-02-17T16:15:11.741Z,13.91
2023-02-17T16:18:24.828Z,13.78
2023-02-17T16:21:28.214Z,13.47
2023-02-17T16:24:31.223Z,13.27
2023-02-17T16:27:34.075Z,13.11
2023-02-17T16:30:37.153Z,13.03
2023-02-17T16:33:40.146Z,12.97
2023-02-17T16:36:43.348Z,12.85
2023-02-17T16:39:46.743Z,12.66
2023-02-17T16:42:50.322Z,12.39
2023-02-17T16:46:02.886Z,12.21
2023-02-17T16:49:24.524Z,12.15
2023-02-17T16:52:28.150Z,12.24
2023-02-17T16:55:34.860Z,12.05
2023-02-17T16:58:37.944Z,12.04
2023-02-17T17:01:41.116Z,11.83
2023-02-17T17:04:44.271Z,11.68
2023-02-17T17:07:51.293Z,11.63
2023-02-17T17:10:54.263Z,11.54
2023-02-17T17:13:57.529Z,11.50
2023-02-17T17:17:02.273Z,11.52
2023-02-17T17:20:05.772Z,11.56
2023-02-17T17:23:13.630Z,11.48
2023-02-17T17:26:35.892Z,11.38
2023-02-17T17:29:38.925Z,11.31
2023-02-17T17:32:42.315Z,11.24
2023-02-17T17:35:45.475Z,11.20
2023-02-17T17:38:48.368Z,11.13
2023-02-17T17:41:52.705Z,11.01
2023-02-17T17:44:55.663Z,10.94
2023-02-17T17:47:58.953Z,10.79
2023-02-17T17:51:01.913Z,10.83
2023-02-17T17:54:07.034Z,10.74
2023-02-17T17:57:10.826Z,10.44
2023-02-17T18:00:18.308Z,10.34
2023-02-17T18:03:21.154Z,10.33
2023-02-17T18:06:35.588Z,10.26
2023-02-17T18:09:39.769Z,10.21
2023-02-17T18:12:45.803Z,10.05
2023-02-17T18:15:49.434Z,9.97
2023-02-17T18:18:52.960Z,9.92
2023-02-17T18:21:56.667Z,9.75
2023-02-17T18:24:59.678Z,9.56
2023-02-17T18:28:02.459Z,9.48
2023-02-17T18:31:10.512Z,9.34
2023-02-17T18:34:14.445Z,9.26
2023-02-17T18:37:17.546Z,9.14
2023-02-17T18:40:22.225Z,9.11
2023-02-17T18:43:25.266Z,9.02
2023-02-17T18:46:28.926Z,8.94
2023-02-17T18:49:32.261Z,8.80
2023-02-17T18:52:38.078Z,8.82
2023-02-17T18:55:41.104Z,8.78
2023-02-17T18:58:44.320Z,8.73
2023-02-17T19:01:47.497Z,8.68
2023-02-17T19:04:55.195Z,8.84
2023-02-17T19:07:58.822Z,8.98
2023-02-17T19:11:03.251Z,8.97
2023-02-17T19:14:06.577Z,8.93
2023-02-17T19:17:12.002Z,8.85
2023-02-17T19:20:17.271Z,8.81
2023-02-17T19:23:20.330Z,8.72
2023-02-17T19:26:23.283Z,8.59
2023-02-17T19:29:26.547Z,8.56
2023-02-17T19:32:29.663Z,8.39
2023-02-17T19:35:32.698Z,8.30
2023-02-17T19:38:36.010Z,8.31
2023-02-17T19:41:39.168Z,8.53
2023-02-17T19:44:42.564Z,8.71
2023-02-17T19:47:46.457Z,8.90
2023-02-17T19:50:50.239Z,9.00
2023-02-17T19:53:53.270Z,9.16
2023-02-17T19:56:56.000Z,9.33
2023-02-17T19:59:59.213Z,9.37
2023-02-17T20:03:02.296Z,9.43
2023-02-17T20:06:11.645Z,9.52
2023-02-17T20:09:19.918Z,9.56
2023-02-17T20:12:23.097Z,9.60
2023-02-17T20:15:26.325Z,9.63
2023-02-17T20:18:29.897Z,9.77
2023-02-17T20:21:36.678Z,9.81
2023-02-17T20:24:42.194Z,9.83
2023-02-17T20:27:45.678Z,9.89
2023-02-17T20:30:49.170Z,9.93
2023-02-17T20:33:53.043Z,9.97
2023-02-17T20:36:57.222Z,9.91
2023-02-17T20:40:00.870Z,9.91
2023-02-17T20:43:05.249Z,9.87
2023-02-17T20:46:13.283Z,9.88
2023-02-17T20:49:16.193Z,9.94
2023-02-17T20:52:19.361Z,9.99
2023-02-17T20:55:22.218Z,10.11
2023-02-17T20:58:25.432Z,10.08
2023-02-17T21:01:29.069Z,10.09
2023-02-17T21:04:32.267Z,10.02
2023-02-17T21:07:35.321Z,10.12
2023-02-17T21:10:40.151Z,10.12
2023-02-17T21:13:43.229Z,10.05
2023-02-17T21:16:47.948Z,10.05
2023-02-17T21:19:51.315Z,10.15
2023-02-17T21:22:54.563Z,10.21
2023-02-17T21:25:57.490Z,10.22
2023-02-17T21:29:00.594Z,10.20
2023-02-17T21:32:04.972Z,10.24
2023-02-17T21:35:11.505Z,10.28
2023-02-17T21:38:17.003Z,10.31
2023-02-17T21:41:23.030Z,10.39
2023-02-17T21:44:44.591Z,10.41
2023-02-17T21:47:47.469Z,10.40
2023-02-17T21:50:50.215Z,10.45
2023-02-17T21:53:53.857Z,10.51
2023-02-17T21:56:56.765Z,10.52
2023-02-17T21:59:59.550Z,10.52
2023-02-17T22:03:02.365Z,10.61
2023-02-17T22:06:17.548Z,10.67
2023-02-17T22:09:20.656Z,10.63
2023-02-17T22:12:23.516Z,10.67
2023-02-17T22:15:26.548Z,10.71
2023-02-17T22:18:29.652Z,10.75
2023-02-17T22:21:32.595Z,10.80
2023-02-17T22:24:35.469Z,10.76
2023-02-17T22:27:38.168Z,10.79
2023-02-17T22:30:41.011Z,10.78
2023-02-17T22:33:44.185Z,10.82
2023-02-17T22:36:46.998Z,10.75
2023-02-17T22:39:56.579Z,10.72
2023-02-17T22:42:59.740Z,10.74
2023-02-17T22:46:03.154Z,10.71
2023-02-17T22:49:06.258Z,10.68
2023-02-17T22:52:09.517Z,10.69
2023-02-17T22:55:12.250Z,10.61
2023-02-17T22:58:15.181Z,10.57
2023-02-17T23:01:21.024Z,10.56
2023-02-17T23:04:23.992Z,10.49
2023-02-17T23:07:26.806Z,10.47
2023-02-17T23:10:29.965Z,10.49
2023-02-17T23:13:34.313Z,10.45
2023-02-17T23:16:37.315Z,10.45
2023-02-17T23:19:42.380Z,10.47
2023-02-17T23:22:45.457Z,10.49
2023-02-17T23:25:54.367Z,10.50
2023-02-17T23:28:57.336Z,10.47
2023-02-17T23:32:00.714Z,10.53
2023-02-17T23:35:04.389Z,10.55
2023-02-17T23:38:08.492Z,10.49
2023-02-17T23:41:11.471Z,10.51
2023-02-17T23:44:15.885Z,10.55
2023-02-17T23:47:18.679Z,10.57
2023-02-17T23:50:21.638Z,10.55
2023-02-17T23:53:25.025Z,10.59
2023-02-17T23:56:33.515Z,10.58
2023-02-17T23:59:37.791Z,10.56
